sensor_id;sensor_type;location;lat;lon;timestamp;temperature;humidity
47520;DHT22;33252;48.122;11.538;2023-02-27T00:00:22;-1.50;99.90
47520;DHT22;33252;48.122;11.538;2023-02-27T00:02:50;-1.40;99.90
47520;DHT22;33252;48.122;11.538;2023-02-27T00:05:17;-1.40;99.90
47520;DHT22;33252;48.122;11.538;2023-02-27T00:07:43;-1.50;99.90
47520;DHT22;33252;48.122;11.538;2023-02-27T00:10:11;-1.40;99.90
47520;DHT22;33252;48.122;11.538;2023-02-27T00:12:37;-1.50;99.90
47520;DHT22;33252;48.122;11.538;2023-02-27T00:15:12;-1.50;99.90
47520;DHT22;33252;48.122;11.538;2023-02-27T00:17:38;-1.50;99.90
47520;DHT22;33252;48.122;11.538;2023-02-27T00:20:05;-1.50;99.90
47520;DHT22;33252;48.122;11.538;2023-02-27T00:22:32;-1.60;99.90
47520;DHT22;33252;48.122;11.538;2023-02-27T00:24:57;-1.60;99.90
47520;DHT22;33252;48.122;11.538;2023-02-27T00:27:23;-1.60;99.90
47520;DHT22;33252;48.122;11.538;2023-02-27T00:29:49;-1.60;99.90
47520;DHT22;33252;48.122;11.538;2023-02-27T00:32:15;-1.70;99.90
47520;DHT22;33252;48.122;11.538;2023-02-27T00:34:40;-1.70;99.90
47520;DHT22;33252;48.122;11.538;2023-02-27T00:37:06;-1.60;99.90
47520;DHT22;33252;48.122;11.538;2023-02-27T00:39:32;-1.70;99.90
47520;DHT22;33252;48.122;11.538;2023-02-27T00:41:58;-1.70;99.90
47520;DHT22;33252;48.122;11.538;2023-02-27T00:44:23;-1.60;99.90
47520;DHT22;33252;48.122;11.538;2023-02-27T00:46:49;-1.60;99.90
47520;DHT22;33252;48.122;11.538;2023-02-27T00:49:15;-1.60;99.90
47520;DHT22;33252;48.122;11.538;2023-02-27T00:51:40;-1.70;99.90
47520;DHT22;33252;48.122;11.538;2023-02-27T00:54:06;-1.70;99.90
47520;DHT22;33252;48.122;11.538;2023-02-27T00:56:33;-1.60;99.90
47520;DHT22;33252;48.122;11.538;2023-02-27T00:58:59;-1.60;99.90
47520;DHT22;33252;48.122;11.538;2023-02-27T01:01:27;-1.60;99.90
47520;DHT22;33252;48.122;11.538;2023-02-27T01:03:53;-1.70;99.90
47520;DHT22;33252;48.122;11.538;2023-02-27T01:06:19;-1.70;99.90
47520;DHT22;33252;48.122;11.538;2023-02-27T01:08:44;-1.70;99.90
47520;DHT22;33252;48.122;11.538;2023-02-27T01:11:10;-1.70;99.90
47520;DHT22;33252;48.122;11.538;2023-02-27T01:13:35;-1.70;99.90
47520;DHT22;33252;48.122;11.538;2023-02-27T01:16:01;-1.60;99.90
47520;DHT22;33252;48.122;11.538;2023-02-27T01:18:27;-1.60;99.90
47520;DHT22;33252;48.122;11.538;2023-02-27T01:20:53;-1.60;99.90
47520;DHT22;33252;48.122;11.538;2023-02-27T01:23:19;-1.70;99.90
47520;DHT22;33252;48.122;11.538;2023-02-27T01:25:46;-1.70;99.90
47520;DHT22;33252;48.122;11.538;2023-02-27T01:28:13;-1.80;99.90
47520;DHT22;33252;48.122;11.538;2023-02-27T01:30:38;-1.80;99.90
47520;DHT22;33252;48.122;11.538;2023-02-27T01:33:05;-1.80;99.90
47520;DHT22;33252;48.122;11.538;2023-02-27T01:35:30;-1.80;99.90
47520;DHT22;33252;48.122;11.538;2023-02-27T01:37:56;-1.80;99.90
47520;DHT22;33252;48.122;11.538;2023-02-27T01:40:22;-1.80;99.90
47520;DHT22;33252;48.122;11.538;2023-02-27T01:42:47;-1.90;99.90
47520;DHT22;33252;48.122;11.538;2023-02-27T01:45:25;-1.90;99.90
47520;DHT22;33252;48.122;11.538;2023-02-27T01:47:59;-2.00;99.90
47520;DHT22;33252;48.122;11.538;2023-02-27T01:50:28;-1.80;99.90
47520;DHT22;33252;48.122;11.538;2023-02-27T01:52:59;-1.80;99.90
47520;DHT22;33252;48.122;11.538;2023-02-27T01:55:27;-1.80;99.90
47520;DHT22;33252;48.122;11.538;2023-02-27T01:57:54;-1.80;99.90
47520;DHT22;33252;48.122;11.538;2023-02-27T02:00:21;-1.70;99.90
47520;DHT22;33252;48.122;11.538;2023-02-27T02:03:12;-1.70;99.90
47520;DHT22;33252;48.122;11.538;2023-02-27T02:05:36;-1.80;99.90
47520;DHT22;33252;48.122;11.538;2023-02-27T02:08:03;-1.70;99.90
47520;DHT22;33252;48.122;11.538;2023-02-27T02:10:29;-1.80;99.90
47520;DHT22;33252;48.122;11.538;2023-02-27T02:12:55;-1.80;99.90
47520;DHT22;33252;48.122;11.538;2023-02-27T02:15:25;-1.80;99.90
47520;DHT22;33252;48.122;11.538;2023-02-27T02:18:11;-1.80;99.90
47520;DHT22;33252;48.122;11.538;2023-02-27T02:26:42;-1.80;99.90
47520;DHT22;33252;48.122;11.538;2023-02-27T02:29:40;-1.90;99.90
47520;DHT22;33252;48.122;11.538;2023-02-27T02:38:46;-1.80;99.90
47520;DHT22;33252;48.122;11.538;2023-02-27T02:50:20;-2.00;99.90
47520;DHT22;33252;48.122;11.538;2023-02-27T02:53:07;-1.90;99.90
47520;DHT22;33252;48.122;11.538;2023-02-27T02:55:59;-2.10;99.90
47520;DHT22;33252;48.122;11.538;2023-02-27T03:07:02;-2.00;99.90
47520;DHT22;33252;48.122;11.538;2023-02-27T03:09:54;-2.10;99.90
47520;DHT22;33252;48.122;11.538;2023-02-27T03:12:24;-2.00;99.90
47520;DHT22;33252;48.122;11.538;2023-02-27T03:15:02;-2.00;99.90
47520;DHT22;33252;48.122;11.538;2023-02-27T03:17:40;-2.00;99.90
47520;DHT22;33252;48.122;11.538;2023-02-27T03:20:11;-2.10;99.90
47520;DHT22;33252;48.122;11.538;2023-02-27T03:22:42;-2.00;99.90
47520;DHT22;33252;48.122;11.538;2023-02-27T03:25:11;-2.00;99.90
47520;DHT22;33252;48.122;11.538;2023-02-27T03:27:59;-2.00;99.90
47520;DHT22;33252;48.122;11.538;2023-02-27T03:33:27;-2.00;99.90
47520;DHT22;33252;48.122;11.538;2023-02-27T03:36:00;-2.00;99.90
47520;DHT22;33252;48.122;11.538;2023-02-27T03:38:41;-1.90;99.90
47520;DHT22;33252;48.122;11.538;2023-02-27T03:41:28;-1.90;99.90
47520;DHT22;33252;48.122;11.538;2023-02-27T03:44:06;-2.00;99.90
47520;DHT22;33252;48.122;11.538;2023-02-27T03:46:34;-1.80;99.90
47520;DHT22;33252;48.122;11.538;2023-02-27T03:49:00;-1.90;99.90
47520;DHT22;33252;48.122;11.538;2023-02-27T03:51:26;-1.90;99.90
47520;DHT22;33252;48.122;11.538;2023-02-27T03:54:15;-2.00;99.90
47520;DHT22;33252;48.122;11.538;2023-02-27T03:59:13;-1.90;99.90
47520;DHT22;33252;48.122;11.538;2023-02-27T04:01:40;-1.80;99.90
47520;DHT22;33252;48.122;11.538;2023-02-27T04:04:11;-1.90;99.90
47520;DHT22;33252;48.122;11.538;2023-02-27T04:06:39;-1.90;99.90
47520;DHT22;33252;48.122;11.538;2023-02-27T04:09:48;-1.90;99.90
47520;DHT22;33252;48.122;11.538;2023-02-27T04:12:33;-1.90;99.90
47520;DHT22;33252;48.122;11.538;2023-02-27T04:17:50;-1.90;99.90
47520;DHT22;33252;48.122;11.538;2023-02-27T04:20:35;-1.90;99.90
47520;DHT22;33252;48.122;11.538;2023-02-27T04:23:06;-1.90;99.90
47520;DHT22;33252;48.122;11.538;2023-02-27T04:28:40;-1.90;99.90
47520;DHT22;33252;48.122;11.538;2023-02-27T04:31:18;-1.90;99.90
47520;DHT22;33252;48.122;11.538;2023-02-27T04:33:51;-1.90;99.90
47520;DHT22;33252;48.122;11.538;2023-02-27T04:41:46;-1.90;99.90
47520;DHT22;33252;48.122;11.538;2023-02-27T04:44:15;-1.90;99.90
47520;DHT22;33252;48.122;11.538;2023-02-27T04:46:43;-1.80;99.90
47520;DHT22;33252;48.122;11.538;2023-02-27T04:49:16;-1.90;99.90
47520;DHT22;33252;48.122;11.538;2023-02-27T04:51:59;-1.90;99.90
47520;DHT22;33252;48.122;11.538;2023-02-27T04:54:34;-2.00;99.90
47520;DHT22;33252;48.122;11.538;2023-02-27T04:57:04;-2.00;99.90
47520;DHT22;33252;48.122;11.538;2023-02-27T04:59:47;-1.90;99.90
47520;DHT22;33252;48.122;11.538;2023-02-27T05:02:19;-1.90;99.90
47520;DHT22;33252;48.122;11.538;2023-02-27T05:04:54;-1.90;99.90
47520;DHT22;33252;48.122;11.538;2023-02-27T05:07:25;-2.00;99.90
47520;DHT22;33252;48.122;11.538;2023-02-27T05:10:05;-1.90;99.90
47520;DHT22;33252;48.122;11.538;2023-02-27T05:12:43;-2.00;99.90
47520;DHT22;33252;48.122;11.538;2023-02-27T05:15:28;-2.00;99.90
47520;DHT22;33252;48.122;11.538;2023-02-27T05:20:39;-2.00;99.90
47520;DHT22;33252;48.122;11.538;2023-02-27T05:23:19;-2.10;99.90
47520;DHT22;33252;48.122;11.538;2023-02-27T05:25:54;-2.00;99.90
47520;DHT22;33252;48.122;11.538;2023-02-27T05:28:59;-2.10;99.90
47520;DHT22;33252;48.122;11.538;2023-02-27T05:31:55;-2.10;99.90
47520;DHT22;33252;48.122;11.538;2023-02-27T05:34:28;-2.10;99.90
47520;DHT22;33252;48.122;11.538;2023-02-27T05:36:58;-2.10;99.90
47520;DHT22;33252;48.122;11.538;2023-02-27T05:39:27;-2.00;99.90
47520;DHT22;33252;48.122;11.538;2023-02-27T05:44:59;-2.10;99.90
47520;DHT22;33252;48.122;11.538;2023-02-27T05:47:28;-2.00;99.90
47520;DHT22;33252;48.122;11.538;2023-02-27T05:52:31;-2.10;99.90
47520;DHT22;33252;48.122;11.538;2023-02-27T05:57:52;-2.10;99.90
47520;DHT22;33252;48.122;11.538;2023-02-27T06:00:25;-2.10;99.90
47520;DHT22;33252;48.122;11.538;2023-02-27T06:02:54;-2.00;99.90
47520;DHT22;33252;48.122;11.538;2023-02-27T06:05:20;-1.90;99.90
47520;DHT22;33252;48.122;11.538;2023-02-27T06:07:45;-1.90;99.90
47520;DHT22;33252;48.122;11.538;2023-02-27T06:10:14;-1.90;99.90
47520;DHT22;33252;48.122;11.538;2023-02-27T06:12:39;-1.90;99.90
47520;DHT22;33252;48.122;11.538;2023-02-27T06:15:05;-1.90;99.90
47520;DHT22;33252;48.122;11.538;2023-02-27T06:17:31;-1.90;99.90
47520;DHT22;33252;48.122;11.538;2023-02-27T06:19:57;-1.90;99.90
47520;DHT22;33252;48.122;11.538;2023-02-27T06:22:22;-1.90;99.90
47520;DHT22;33252;48.122;11.538;2023-02-27T06:24:48;-1.80;99.90
47520;DHT22;33252;48.122;11.538;2023-02-27T06:27:14;-1.90;99.90
47520;DHT22;33252;48.122;11.538;2023-02-27T06:29:40;-1.80;99.90
47520;DHT22;33252;48.122;11.538;2023-02-27T06:32:05;-1.80;99.90
47520;DHT22;33252;48.122;11.538;2023-02-27T06:34:31;-1.80;99.90
47520;DHT22;33252;48.122;11.538;2023-02-27T06:36:57;-1.90;99.90
47520;DHT22;33252;48.122;11.538;2023-02-27T06:39:22;-1.80;99.90
47520;DHT22;33252;48.122;11.538;2023-02-27T06:41:48;-1.80;99.90
47520;DHT22;33252;48.122;11.538;2023-02-27T06:44:13;-1.70;99.90
47520;DHT22;33252;48.122;11.538;2023-02-27T06:46:39;-1.70;99.90
47520;DHT22;33252;48.122;11.538;2023-02-27T06:49:05;-1.70;99.90
47520;DHT22;33252;48.122;11.538;2023-02-27T06:51:31;-1.70;99.90
47520;DHT22;33252;48.122;11.538;2023-02-27T06:53:57;-1.60;99.90
47520;DHT22;33252;48.122;11.538;2023-02-27T06:56:22;-1.60;99.90
47520;DHT22;33252;48.122;11.538;2023-02-27T06:58:48;-1.60;99.90
47520;DHT22;33252;48.122;11.538;2023-02-27T07:01:14;-1.50;99.90
47520;DHT22;33252;48.122;11.538;2023-02-27T07:03:39;-1.60;99.90
47520;DHT22;33252;48.122;11.538;2023-02-27T07:06:05;-1.50;99.90
47520;DHT22;33252;48.122;11.538;2023-02-27T07:08:31;-1.50;99.90
47520;DHT22;33252;48.122;11.538;2023-02-27T07:10:56;-1.50;99.90
47520;DHT22;33252;48.122;11.538;2023-02-27T07:13:22;-1.50;99.90
47520;DHT22;33252;48.122;11.538;2023-02-27T07:15:49;-1.40;99.90
47520;DHT22;33252;48.122;11.538;2023-02-27T07:18:14;-1.40;99.90
47520;DHT22;33252;48.122;11.538;2023-02-27T07:20:40;-1.40;99.90
47520;DHT22;33252;48.122;11.538;2023-02-27T07:23:06;-1.30;99.90
47520;DHT22;33252;48.122;11.538;2023-02-27T07:25:32;-1.30;99.90
47520;DHT22;33252;48.122;11.538;2023-02-27T07:27:57;-1.30;99.90
47520;DHT22;33252;48.122;11.538;2023-02-27T07:30:23;-1.20;99.90
47520;DHT22;33252;48.122;11.538;2023-02-27T07:32:48;-1.20;99.90
47520;DHT22;33252;48.122;11.538;2023-02-27T07:35:15;-1.20;99.90
47520;DHT22;33252;48.122;11.538;2023-02-27T07:37:41;-1.10;99.90
47520;DHT22;33252;48.122;11.538;2023-02-27T07:40:07;-1.20;99.90
47520;DHT22;33252;48.122;11.538;2023-02-27T07:42:33;-1.10;99.90
47520;DHT22;33252;48.122;11.538;2023-02-27T07:44:59;-1.00;99.90
47520;DHT22;33252;48.122;11.538;2023-02-27T07:47:25;-1.00;99.90
47520;DHT22;33252;48.122;11.538;2023-02-27T07:49:51;-1.10;99.90
47520;DHT22;33252;48.122;11.538;2023-02-27T07:52:18;-1.00;99.90
47520;DHT22;33252;48.122;11.538;2023-02-27T07:54:43;-0.90;99.90
47520;DHT22;33252;48.122;11.538;2023-02-27T07:57:09;-0.90;99.90
47520;DHT22;33252;48.122;11.538;2023-02-27T07:59:35;-0.90;99.90
47520;DHT22;33252;48.122;11.538;2023-02-27T08:02:00;-0.80;99.90
47520;DHT22;33252;48.122;11.538;2023-02-27T08:04:26;-0.80;99.70
47520;DHT22;33252;48.122;11.538;2023-02-27T08:06:52;-0.80;99.50
47520;DHT22;33252;48.122;11.538;2023-02-27T08:09:17;-0.70;99.70
47520;DHT22;33252;48.122;11.538;2023-02-27T08:11:43;-0.70;99.70
47520;DHT22;33252;48.122;11.538;2023-02-27T08:14:09;-0.70;99.50
47520;DHT22;33252;48.122;11.538;2023-02-27T08:16:34;-0.60;99.20
47520;DHT22;33252;48.122;11.538;2023-02-27T08:19:00;-0.60;99.30
47520;DHT22;33252;48.122;11.538;2023-02-27T08:21:26;-0.50;99.10
47520;DHT22;33252;48.122;11.538;2023-02-27T08:23:52;-0.50;99.20
47520;DHT22;33252;48.122;11.538;2023-02-27T08:26:18;-0.50;99.10
47520;DHT22;33252;48.122;11.538;2023-02-27T08:28:44;-0.50;98.90
47520;DHT22;33252;48.122;11.538;2023-02-27T08:31:10;-0.50;98.60
47520;DHT22;33252;48.122;11.538;2023-02-27T08:33:35;-0.50;99.10
47520;DHT22;33252;48.122;11.538;2023-02-27T08:36:01;-0.40;98.60
47520;DHT22;33252;48.122;11.538;2023-02-27T08:38:27;-0.40;99.00
47520;DHT22;33252;48.122;11.538;2023-02-27T08:40:52;-0.50;98.50
47520;DHT22;33252;48.122;11.538;2023-02-27T08:43:19;-0.40;98.60
47520;DHT22;33252;48.122;11.538;2023-02-27T08:45:47;-0.30;98.80
47520;DHT22;33252;48.122;11.538;2023-02-27T08:48:13;-0.30;98.00
47520;DHT22;33252;48.122;11.538;2023-02-27T08:50:43;-0.30;98.10
47520;DHT22;33252;48.122;11.538;2023-02-27T08:53:10;-0.40;98.20
47520;DHT22;33252;48.122;11.538;2023-02-27T08:55:36;-0.30;98.40
47520;DHT22;33252;48.122;11.538;2023-02-27T08:58:01;-0.30;98.20
47520;DHT22;33252;48.122;11.538;2023-02-27T09:00:27;-0.40;97.90
47520;DHT22;33252;48.122;11.538;2023-02-27T09:02:53;-0.30;97.90
47520;DHT22;33252;48.122;11.538;2023-02-27T09:05:19;-0.20;98.00
47520;DHT22;33252;48.122;11.538;2023-02-27T09:07:45;-0.20;97.70
47520;DHT22;33252;48.122;11.538;2023-02-27T09:10:11;-0.20;97.90
47520;DHT22;33252;48.122;11.538;2023-02-27T09:12:37;-0.20;97.00
47520;DHT22;33252;48.122;11.538;2023-02-27T09:15:05;-0.20;97.30
47520;DHT22;33252;48.122;11.538;2023-02-27T09:17:31;0.00;97.00
47520;DHT22;33252;48.122;11.538;2023-02-27T09:19:56;-0.10;96.80
47520;DHT22;33252;48.122;11.538;2023-02-27T09:22:22;-0.10;96.70
47520;DHT22;33252;48.122;11.538;2023-02-27T09:24:48;0.00;96.80
47520;DHT22;33252;48.122;11.538;2023-02-27T09:27:14;0.10;96.90
47520;DHT22;33252;48.122;11.538;2023-02-27T09:29:40;0.20;97.00
47520;DHT22;33252;48.122;11.538;2023-02-27T09:32:06;0.20;96.90
47520;DHT22;33252;48.122;11.538;2023-02-27T09:34:32;0.20;97.10
47520;DHT22;33252;48.122;11.538;2023-02-27T09:36:59;0.20;97.30
47520;DHT22;33252;48.122;11.538;2023-02-27T09:39:25;0.20;97.30
47520;DHT22;33252;48.122;11.538;2023-02-27T09:44:29;-0.10;97.50
47520;DHT22;33252;48.122;11.538;2023-02-27T09:46:56;-0.30;98.10
47520;DHT22;33252;48.122;11.538;2023-02-27T09:49:25;-0.30;99.00
47520;DHT22;33252;48.122;11.538;2023-02-27T09:51:52;-0.30;99.50
47520;DHT22;33252;48.122;11.538;2023-02-27T09:54:18;-0.30;99.90
47520;DHT22;33252;48.122;11.538;2023-02-27T09:56:53;-0.30;99.90
47520;DHT22;33252;48.122;11.538;2023-02-27T09:59:46;-0.20;99.90
47520;DHT22;33252;48.122;11.538;2023-02-27T10:08:00;0.00;99.30
47520;DHT22;33252;48.122;11.538;2023-02-27T10:10:46;0.10;99.20
47520;DHT22;33252;48.122;11.538;2023-02-27T10:13:44;0.10;98.30
47520;DHT22;33252;48.122;11.538;2023-02-27T10:16:16;0.20;98.50
47520;DHT22;33252;48.122;11.538;2023-02-27T10:19:02;0.30;98.20
47520;DHT22;33252;48.122;11.538;2023-02-27T10:21:42;0.40;98.00
47520;DHT22;33252;48.122;11.538;2023-02-27T10:26:53;0.50;96.80
47520;DHT22;33252;48.122;11.538;2023-02-27T10:29:29;0.50;96.60
47520;DHT22;33252;48.122;11.538;2023-02-27T10:34:33;0.50;97.80
47520;DHT22;33252;48.122;11.538;2023-02-27T10:37:01;0.60;96.30
47520;DHT22;33252;48.122;11.538;2023-02-27T10:39:29;0.50;96.00
47520;DHT22;33252;48.122;11.538;2023-02-27T10:42:04;0.60;96.30
47520;DHT22;33252;48.122;11.538;2023-02-27T10:44:31;0.50;96.10
47520;DHT22;33252;48.122;11.538;2023-02-27T10:46:57;0.50;96.50
47520;DHT22;33252;48.122;11.538;2023-02-27T10:49:23;0.50;95.50
47520;DHT22;33252;48.122;11.538;2023-02-27T10:52:06;0.50;96.30
47520;DHT22;33252;48.122;11.538;2023-02-27T10:54:32;0.40;95.70
47520;DHT22;33252;48.122;11.538;2023-02-27T10:57:00;0.40;94.90
47520;DHT22;33252;48.122;11.538;2023-02-27T10:59:32;0.30;94.90
47520;DHT22;33252;48.122;11.538;2023-02-27T11:02:03;0.40;94.90
47520;DHT22;33252;48.122;11.538;2023-02-27T11:04:36;0.40;94.50
47520;DHT22;33252;48.122;11.538;2023-02-27T11:07:08;0.40;93.30
47520;DHT22;33252;48.122;11.538;2023-02-27T11:09:34;0.50;93.10
47520;DHT22;33252;48.122;11.538;2023-02-27T11:12:25;0.50;93.30
47520;DHT22;33252;48.122;11.538;2023-02-27T11:14:59;0.40;93.30
47520;DHT22;33252;48.122;11.538;2023-02-27T11:17:31;0.50;93.10
47520;DHT22;33252;48.122;11.538;2023-02-27T11:19:58;0.50;93.10
47520;DHT22;33252;48.122;11.538;2023-02-27T11:22:28;0.50;93.00
47520;DHT22;33252;48.122;11.538;2023-02-27T11:25:20;0.50;92.70
47520;DHT22;33252;48.122;11.538;2023-02-27T11:27:47;0.50;92.20
47520;DHT22;33252;48.122;11.538;2023-02-27T11:30:28;0.60;92.60
47520;DHT22;33252;48.122;11.538;2023-02-27T11:32:57;0.50;91.90
47520;DHT22;33252;48.122;11.538;2023-02-27T11:35:31;0.50;92.40
47520;DHT22;33252;48.122;11.538;2023-02-27T11:38:03;0.40;91.90
47520;DHT22;33252;48.122;11.538;2023-02-27T11:40:32;0.40;92.10
47520;DHT22;33252;48.122;11.538;2023-02-27T11:43:05;0.40;91.70
47520;DHT22;33252;48.122;11.538;2023-02-27T11:45:40;0.30;91.80
47520;DHT22;33252;48.122;11.538;2023-02-27T11:48:16;0.30;91.50
47520;DHT22;33252;48.122;11.538;2023-02-27T11:56:40;0.40;91.30
47520;DHT22;33252;48.122;11.538;2023-02-27T12:01:58;0.40;91.20
47520;DHT22;33252;48.122;11.538;2023-02-27T12:12:35;0.50;90.90
47520;DHT22;33252;48.122;11.538;2023-02-27T12:17:48;0.40;91.50
47520;DHT22;33252;48.122;11.538;2023-02-27T12:22:50;0.50;92.50
47520;DHT22;33252;48.122;11.538;2023-02-27T12:30:22;0.50;91.70
47520;DHT22;33252;48.122;11.538;2023-02-27T12:32:52;0.50;91.70
47520;DHT22;33252;48.122;11.538;2023-02-27T12:35:31;0.50;91.90
47520;DHT22;33252;48.122;11.538;2023-02-27T12:37:57;0.50;91.70
47520;DHT22;33252;48.122;11.538;2023-02-27T12:40:37;0.40;91.20
47520;DHT22;33252;48.122;11.538;2023-02-27T12:48:22;0.50;90.80
47520;DHT22;33252;48.122;11.538;2023-02-27T12:56:59;0.70;91.10
47520;DHT22;33252;48.122;11.538;2023-02-27T13:02:39;0.60;91.50
47520;DHT22;33252;48.122;11.538;2023-02-27T13:10:50;0.60;91.20
47520;DHT22;33252;48.122;11.538;2023-02-27T13:13:34;0.80;91.40
47520;DHT22;33252;48.122;11.538;2023-02-27T13:16:06;0.80;91.40
47520;DHT22;33252;48.122;11.538;2023-02-27T13:18:43;0.70;91.40
47520;DHT22;33252;48.122;11.538;2023-02-27T13:21:12;0.90;91.50
47520;DHT22;33252;48.122;11.538;2023-02-27T13:23:47;0.80;90.40
47520;DHT22;33252;48.122;11.538;2023-02-27T13:26:21;0.80;91.10
47520;DHT22;33252;48.122;11.538;2023-02-27T13:28:50;0.90;90.90
47520;DHT22;33252;48.122;11.538;2023-02-27T13:31:31;0.80;91.30
47520;DHT22;33252;48.122;11.538;2023-02-27T13:34:12;1.00;90.80
47520;DHT22;33252;48.122;11.538;2023-02-27T13:36:49;1.00;90.40
47520;DHT22;33252;48.122;11.538;2023-02-27T13:49:54;0.80;90.80
47520;DHT22;33252;48.122;11.538;2023-02-27T13:52:36;0.80;91.40
47520;DHT22;33252;48.122;11.538;2023-02-27T13:55:06;0.80;91.60
47520;DHT22;33252;48.122;11.538;2023-02-27T13:57:49;0.70;91.70
47520;DHT22;33252;48.122;11.538;2023-02-27T14:00:21;0.80;91.90
47520;DHT22;33252;48.122;11.538;2023-02-27T14:02:53;1.00;92.10
47520;DHT22;33252;48.122;11.538;2023-02-27T14:05:32;1.10;91.30
47520;DHT22;33252;48.122;11.538;2023-02-27T14:08:15;1.10;92.10
47520;DHT22;33252;48.122;11.538;2023-02-27T14:22:00;1.30;92.00
47520;DHT22;33252;48.122;11.538;2023-02-27T14:27:18;1.10;91.70
47520;DHT22;33252;48.122;11.538;2023-02-27T14:29:46;1.10;92.80
47520;DHT22;33252;48.122;11.538;2023-02-27T14:32:30;1.30;92.00
47520;DHT22;33252;48.122;11.538;2023-02-27T14:34:58;1.00;92.00
47520;DHT22;33252;48.122;11.538;2023-02-27T14:37:25;0.90;92.10
47520;DHT22;33252;48.122;11.538;2023-02-27T14:39:53;0.80;92.60
47520;DHT22;33252;48.122;11.538;2023-02-27T14:45:10;0.80;92.80
47520;DHT22;33252;48.122;11.538;2023-02-27T14:47:37;0.70;92.50
47520;DHT22;33252;48.122;11.538;2023-02-27T14:50:06;0.50;92.30
47520;DHT22;33252;48.122;11.538;2023-02-27T14:52:44;0.50;92.70
47520;DHT22;33252;48.122;11.538;2023-02-27T14:55:15;0.60;92.80
47520;DHT22;33252;48.122;11.538;2023-02-27T14:58:14;0.50;92.70
47520;DHT22;33252;48.122;11.538;2023-02-27T15:00:48;0.50;93.00
47520;DHT22;33252;48.122;11.538;2023-02-27T15:03:29;0.50;92.30
47520;DHT22;33252;48.122;11.538;2023-02-27T15:06:00;0.50;92.60
47520;DHT22;33252;48.122;11.538;2023-02-27T15:08:33;0.50;92.70
47520;DHT22;33252;48.122;11.538;2023-02-27T15:11:01;0.50;92.60
47520;DHT22;33252;48.122;11.538;2023-02-27T15:13:30;0.40;92.90
47520;DHT22;33252;48.122;11.538;2023-02-27T15:18:46;0.60;93.10
47520;DHT22;33252;48.122;11.538;2023-02-27T15:21:15;0.40;93.20
47520;DHT22;33252;48.122;11.538;2023-02-27T15:23:41;0.20;92.90
47520;DHT22;33252;48.122;11.538;2023-02-27T15:26:11;0.20;93.50
47520;DHT22;33252;48.122;11.538;2023-02-27T15:28:38;0.10;93.00
47520;DHT22;33252;48.122;11.538;2023-02-27T15:31:11;0.10;93.70
47520;DHT22;33252;48.122;11.538;2023-02-27T15:33:42;0.20;93.70
47520;DHT22;33252;48.122;11.538;2023-02-27T15:36:18;0.20;93.50
47520;DHT22;33252;48.122;11.538;2023-02-27T15:38:45;0.20;93.30
47520;DHT22;33252;48.122;11.538;2023-02-27T15:41:12;0.10;93.60
47520;DHT22;33252;48.122;11.538;2023-02-27T15:43:39;0.20;93.30
47520;DHT22;33252;48.122;11.538;2023-02-27T15:46:06;0.10;93.50
47520;DHT22;33252;48.122;11.538;2023-02-27T15:48:32;0.10;93.20
47520;DHT22;33252;48.122;11.538;2023-02-27T15:51:00;0.10;92.90
47520;DHT22;33252;48.122;11.538;2023-02-27T15:53:28;0.10;93.10
47520;DHT22;33252;48.122;11.538;2023-02-27T15:55:57;0.00;93.20
47520;DHT22;33252;48.122;11.538;2023-02-27T15:58:26;0.10;93.20
47520;DHT22;33252;48.122;11.538;2023-02-27T16:03:41;0.10;93.40
47520;DHT22;33252;48.122;11.538;2023-02-27T16:06:10;0.00;93.40
47520;DHT22;33252;48.122;11.538;2023-02-27T16:08:43;0.00;93.20
47520;DHT22;33252;48.122;11.538;2023-02-27T16:11:21;0.00;93.40
47520;DHT22;33252;48.122;11.538;2023-02-27T16:13:47;-0.10;93.30
47520;DHT22;33252;48.122;11.538;2023-02-27T16:16:24;0.00;93.30
47520;DHT22;33252;48.122;11.538;2023-02-27T16:18:51;-0.10;93.40
47520;DHT22;33252;48.122;11.538;2023-02-27T16:21:22;-0.10;93.50
47520;DHT22;33252;48.122;11.538;2023-02-27T16:23:48;-0.10;93.40
47520;DHT22;33252;48.122;11.538;2023-02-27T16:26:27;-0.10;93.60
47520;DHT22;33252;48.122;11.538;2023-02-27T16:28:58;-0.20;93.90
47520;DHT22;33252;48.122;11.538;2023-02-27T16:31:35;-0.10;93.60
47520;DHT22;33252;48.122;11.538;2023-02-27T16:36:55;-0.10;92.70
47520;DHT22;33252;48.122;11.538;2023-02-27T16:39:21;-0.30;92.70
47520;DHT22;33252;48.122;11.538;2023-02-27T16:41:47;-0.30;92.50
47520;DHT22;33252;48.122;11.538;2023-02-27T16:44:14;-0.30;92.60
47520;DHT22;33252;48.122;11.538;2023-02-27T16:46:40;-0.40;92.70
47520;DHT22;33252;48.122;11.538;2023-02-27T16:49:05;-0.30;93.00
47520;DHT22;33252;48.122;11.538;2023-02-27T16:51:32;-0.30;93.00
47520;DHT22;33252;48.122;11.538;2023-02-27T16:53:59;-0.40;93.10
47520;DHT22;33252;48.122;11.538;2023-02-27T16:56:26;-0.30;92.70
47520;DHT22;33252;48.122;11.538;2023-02-27T16:58:52;-0.40;93.10
47520;DHT22;33252;48.122;11.538;2023-02-27T17:01:19;-0.40;93.90
47520;DHT22;33252;48.122;11.538;2023-02-27T17:03:45;-0.40;93.10
47520;DHT22;33252;48.122;11.538;2023-02-27T17:06:12;-0.40;93.40
47520;DHT22;33252;48.122;11.538;2023-02-27T17:08:40;-0.50;93.20
47520;DHT22;33252;48.122;11.538;2023-02-27T17:11:07;-0.50;93.40
47520;DHT22;33252;48.122;11.538;2023-02-27T17:13:34;-0.60;93.60
47520;DHT22;33252;48.122;11.538;2023-02-27T17:16:04;-0.50;93.50
47520;DHT22;33252;48.122;11.538;2023-02-27T17:18:31;-0.50;93.80
47520;DHT22;33252;48.122;11.538;2023-02-27T17:21:01;-0.60;93.70
47520;DHT22;33252;48.122;11.538;2023-02-27T17:23:27;-0.60;94.00
47520;DHT22;33252;48.122;11.538;2023-02-27T17:25:53;-0.50;94.10
47520;DHT22;33252;48.122;11.538;2023-02-27T17:28:20;-0.60;94.10
47520;DHT22;33252;48.122;11.538;2023-02-27T17:30:46;-0.50;94.30
47520;DHT22;33252;48.122;11.538;2023-02-27T17:33:12;-0.50;94.40
47520;DHT22;33252;48.122;11.538;2023-02-27T17:35:37;-0.60;94.60
47520;DHT22;33252;48.122;11.538;2023-02-27T17:38:03;-0.60;94.70
47520;DHT22;33252;48.122;11.538;2023-02-27T17:40:29;-0.60;94.90
47520;DHT22;33252;48.122;11.538;2023-02-27T17:42:54;-0.60;94.70
47520;DHT22;33252;48.122;11.538;2023-02-27T17:45:20;-0.60;95.00
47520;DHT22;33252;48.122;11.538;2023-02-27T17:47:47;-0.70;94.90
47520;DHT22;33252;48.122;11.538;2023-02-27T17:50:14;-0.80;95.30
47520;DHT22;33252;48.122;11.538;2023-02-27T17:52:40;-0.70;95.30
47520;DHT22;33252;48.122;11.538;2023-02-27T17:55:07;-0.70;95.40
47520;DHT22;33252;48.122;11.538;2023-02-27T17:57:37;-0.70;95.50
47520;DHT22;33252;48.122;11.538;2023-02-27T18:00:04;-0.70;95.50
47520;DHT22;33252;48.122;11.538;2023-02-27T18:02:31;-0.70;95.60
47520;DHT22;33252;48.122;11.538;2023-02-27T18:04:56;-0.80;95.70
47520;DHT22;33252;48.122;11.538;2023-02-27T18:07:22;-0.80;95.90
47520;DHT22;33252;48.122;11.538;2023-02-27T18:09:48;-0.80;96.30
47520;DHT22;33252;48.122;11.538;2023-02-27T18:12:14;-0.90;96.20